Time;durP1;ratioP1;P1;durP2;ratioP2;P2;SDS_P1;SDS_P2;PMS_P1;PMS_P2;Temp;Humidity;BMP_temperature;BMP_pressure;BME280_temperature;BME280_humidity;BME280_pressure;Samples;Min_cycle;Max_cycle;Signal;HPM_P1;HPM_P2
2021/04/09 00:02:12;;;;;;;3.22;1.40;;;9.50;52.70;;;;;;5013583;28;20401;-83
2021/04/09 00:04:38;;;;;;;2.05;1.60;;;9.50;52.80;;;;;;4996697;28;20552;-84
2021/04/09 00:07:05;;;;;;;1.95;1.40;;;9.50;52.80;;;;;;5011912;28;20051;-84
2021/04/09 00:09:32;;;;;;;3.03;1.55;;;9.40;52.70;;;;;;5014343;28;20441;-83
2021/04/09 00:11:59;;;;;;;1.40;1.30;;;9.40;52.80;;;;;;5013010;28;20029;-83
2021/04/09 00:14:25;;;;;;;1.90;1.48;;;9.30;52.60;;;;;;5013399;28;20495;-83
2021/04/09 00:16:52;;;;;;;2.80;1.50;;;9.30;52.70;;;;;;4997217;28;20036;-84
2021/04/09 00:19:21;;;;;;;2.58;1.55;;;9.30;52.80;;;;;;4996867;28;20025;-83
2021/04/09 00:21:47;;;;;;;2.88;1.35;;;9.20;52.60;;;;;;4997160;28;20037;-82
2021/04/09 00:24:14;;;;;;;1.50;1.38;;;9.20;52.70;;;;;;5013553;28;20053;-83
2021/04/09 00:26:40;;;;;;;4.82;1.42;;;9.10;52.50;;;;;;4996026;28;20025;-82
2021/04/09 00:29:08;;;;;;;2.55;1.30;;;9.10;52.60;;;;;;5034331;28;20069;-83
2021/04/09 00:31:36;;;;;;;2.30;1.40;;;9.10;52.70;;;;;;5045761;28;20039;-83
2021/04/09 00:34:03;;;;;;;2.60;1.42;;;9.00;52.50;;;;;;4993400;28;20092;-83
2021/04/09 00:36:30;;;;;;;2.53;1.77;;;9.10;52.80;;;;;;4976782;28;20061;-82
2021/04/09 00:38:56;;;;;;;1.40;1.30;;;9.00;52.70;;;;;;4998223;28;20033;-82
2021/04/09 00:41:22;;;;;;;3.53;1.30;;;9.00;52.70;;;;;;5046273;28;20025;-82
2021/04/09 00:43:48;;;;;;;1.33;1.23;;;9.00;52.80;;;;;;5029084;28;20156;-82
2021/04/09 00:46:15;;;;;;;1.77;1.67;;;9.00;52.80;;;;;;4996481;28;20038;-83
2021/04/09 00:48:41;;;;;;;1.40;1.30;;;8.90;52.70;;;;;;4996233;28;20065;-83
2021/04/09 00:51:07;;;;;;;1.85;1.40;;;8.90;53.30;;;;;;5011877;28;20053;-84
2021/04/09 00:53:42;;;;;;;2.92;1.58;;;8.90;52.70;;;;;;5006910;28;20038;-84
2021/04/09 00:56:08;;;;;;;2.33;1.70;;;8.80;52.60;;;;;;5007500;28;20079;-82
2021/04/09 00:58:35;;;;;;;2.20;1.48;;;8.90;52.80;;;;;;4977322;28;20033;-82
2021/04/09 01:01:02;;;;;;;1.50;1.40;;;8.90;52.80;;;;;;5010241;28;20096;-82
2021/04/09 01:03:28;;;;;;;1.83;1.40;;;8.80;52.70;;;;;;5010503;28;20094;-83
2021/04/09 01:05:55;;;;;;;1.83;1.52;;;8.80;52.70;;;;;;4994156;28;20067;-83
2021/04/09 01:08:21;;;;;;;1.85;1.70;;;8.80;52.80;;;;;;5010151;28;20390;-83
2021/04/09 01:11:40;;;;;;;1.80;1.48;;;8.70;52.60;;;;;;4995659;28;20033;-84
2021/04/09 01:14:30;;;;;;;1.50;1.40;;;8.70;52.70;;;;;;5011357;28;20434;-84
2021/04/09 01:17:16;;;;;;;3.08;1.50;;;8.70;52.70;;;;;;5012527;28;20072;-83
2021/04/09 01:20:20;;;;;;;1.98;1.42;;;8.70;52.70;;;;;;5028566;28;20026;-83
2021/04/09 01:22:52;;;;;;;2.88;1.73;;;8.60;52.60;;;;;;5012275;28;20400;-83
2021/04/09 01:25:48;;;;;;;2.63;1.83;;;8.70;52.80;;;;;;5028246;28;20045;-83
2021/04/09 01:28:27;;;;;;;1.50;1.40;;;8.60;52.70;;;;;;5011690;28;20435;-82
2021/04/09 01:31:28;;;;;;;2.05;1.73;;;8.60;52.70;;;;;;4994290;28;20025;-83
2021/04/09 01:33:58;;;;;;;1.90;1.67;;;8.60;52.70;;;;;;4999917;28;20608;-82
2021/04/09 01:36:40;;;;;;;4.13;1.95;;;8.60;52.70;;;;;;4991456;28;20026;-82
2021/04/09 01:39:20;;;;;;;2.00;1.80;;;8.60;52.70;;;;;;5018459;28;20053;-82
2021/04/09 01:41:52;;;;;;;5.70;2.25;;;8.60;52.80;;;;;;5010598;28;20113;-82
2021/04/09 01:44:22;;;;;;;3.05;1.73;;;8.60;52.70;;;;;;5011143;28;20063;-82
2021/04/09 01:46:52;;;;;;;2.72;1.80;;;8.50;52.60;;;;;;5018382;28;20025;-83
2021/04/09 01:49:20;;;;;;;1.55;1.45;;;8.50;52.70;;;;;;4995846;28;20033;-83
2021/04/09 01:51:48;;;;;;;2.05;1.83;;;8.50;52.70;;;;;;5011731;28;20124;-82
2021/04/09 01:54:16;;;;;;;2.42;1.73;;;8.50;52.80;;;;;;4995534;28;20071;-82
2021/04/09 01:56:45;;;;;;;2.50;1.83;;;8.50;52.80;;;;;;5012114;28;20029;-82
2021/04/09 01:59:13;;;;;;;2.58;1.55;;;8.40;52.70;;;;;;4995787;28;20472;-82
2021/04/09 02:01:40;;;;;;;1.70;1.60;;;8.40;52.80;;;;;;5011738;28;20026;-84
2021/04/09 02:04:07;;;;;;;2.55;1.70;;;8.40;52.80;;;;;;5014046;28;20029;-82
2021/04/09 02:06:35;;;;;;;2.25;1.70;;;8.40;52.80;;;;;;5013871;28;20033;-83
2021/04/09 02:09:01;;;;;;;3.35;2.03;;;8.40;52.90;;;;;;4997239;28;20044;-82
2021/04/09 02:11:28;;;;;;;3.15;1.77;;;8.40;52.90;;;;;;5013165;28;20048;-82
2021/04/09 02:13:55;;;;;;;1.70;1.60;;;8.30;52.70;;;;;;5046451;28;20025;-83
2021/04/09 02:16:22;;;;;;;2.03;1.70;;;8.30;52.70;;;;;;5014821;28;20037;-83
2021/04/09 02:18:49;;;;;;;2.08;1.65;;;8.30;52.80;;;;;;5000416;28;20075;-84
2021/04/09 02:21:16;;;;;;;1.85;1.75;;;8.30;52.80;;;;;;4981308;28;20034;-82
2021/04/09 02:23:42;;;;;;;4.13;1.80;;;8.20;52.60;;;;;;5013159;28;20046;-83
2021/04/09 02:26:08;;;;;;;1.92;1.75;;;8.30;52.90;;;;;;4998079;28;20535;-82
2021/04/09 02:28:41;;;;;;;1.75;1.63;;;8.20;52.70;;;;;;5030730;28;20036;-83
2021/04/09 02:31:10;;;;;;;1.60;1.50;;;8.20;52.70;;;;;;4981025;28;20088;-83
2021/04/09 02:33:39;;;;;;;2.22;1.75;;;8.20;52.70;;;;;;5014283;28;20028;-84
2021/04/09 02:36:07;;;;;;;1.98;1.63;;;8.20;52.80;;;;;;4981486;28;20045;-84
2021/04/09 02:38:34;;;;;;;2.00;1.52;;;8.20;52.80;;;;;;5046855;28;20481;-84
2021/04/09 02:41:02;;;;;;;1.75;1.55;;;8.20;52.80;;;;;;4997247;28;20385;-84
2021/04/09 02:43:31;;;;;;;1.95;1.85;;;8.10;52.70;;;;;;4981079;28;20056;-83
2021/04/09 02:45:59;;;;;;;2.83;1.63;;;8.10;52.70;;;;;;5013567;28;20036;-83
2021/04/09 02:48:29;;;;;;;1.70;1.60;;;8.10;52.80;;;;;;4981677;28;20138;-83
2021/04/09 02:50:57;;;;;;;2.72;1.75;;;8.00;52.60;;;;;;5001266;28;20500;-83
2021/04/09 02:53:29;;;;;;;2.58;2.05;;;8.00;52.60;;;;;;4984730;28;20030;-82
2021/04/09 02:55:56;;;;;;;2.40;1.75;;;7.90;52.50;;;;;;5017408;28;20034;-83
2021/04/09 02:58:25;;;;;;;2.13;1.60;;;7.90;52.60;;;;;;5001125;28;20040;-83
2021/04/09 03:00:52;;;;;;;1.40;1.30;;;7.90;52.70;;;;;;5016595;28;20059;-84
2021/04/09 03:03:19;;;;;;;1.70;1.60;;;7.80;52.50;;;;;;4985108;28;20029;-84
2021/04/09 03:05:49;;;;;;;2.45;1.80;;;7.80;52.50;;;;;;5000907;28;20037;-84
2021/04/09 03:08:17;;;;;;;2.05;1.90;;;7.80;52.60;;;;;;5034109;28;20495;-83
2021/04/09 03:10:44;;;;;;;4.10;1.80;;;7.80;52.70;;;;;;4984944;28;20095;-84
2021/04/09 03:13:12;;;;;;;1.95;1.73;;;7.70;52.50;;;;;;5017596;28;20041;-83
2021/04/09 03:15:54;;;;;;;2.75;1.58;;;7.70;52.50;;;;;;4984593;28;20057;-84
2021/04/09 03:18:23;;;;;;;1.67;1.50;;;7.70;52.70;;;;;;5017364;28;20186;-83
2021/04/09 03:20:49;;;;;;;1.67;1.58;;;7.60;52.40;;;;;;5016489;28;20370;-83
2021/04/09 03:23:16;;;;;;;1.70;1.60;;;7.60;52.50;;;;;;4984260;28;20085;-83
2021/04/09 03:25:42;;;;;;;3.67;1.73;;;7.60;52.50;;;;;;4997593;28;20128;-83
2021/04/09 03:28:09;;;;;;;3.03;2.03;;;7.60;52.50;;;;;;5017056;28;20032;-82
2021/04/09 03:30:35;;;;;;;3.58;2.13;;;7.50;52.40;;;;;;5016324;28;20029;-82
2021/04/09 03:33:02;;;;;;;1.45;1.35;;;7.50;52.40;;;;;;5000285;28;20121;-83
2021/04/09 03:35:29;;;;;;;3.25;1.60;;;7.50;52.40;;;;;;5000291;28;20032;-83
2021/04/09 03:37:57;;;;;;;3.92;1.88;;;7.50;52.50;;;;;;4984695;28;20030;-84
2021/04/09 03:40:24;;;;;;;3.65;2.03;;;7.40;52.40;;;;;;4983852;28;20041;-83
2021/04/09 03:42:50;;;;;;;2.55;1.77;;;7.40;52.40;;;;;;4996611;28;20060;-83
2021/04/09 03:45:17;;;;;;;1.95;1.73;;;7.40;52.50;;;;;;5029989;28;20064;-83
2021/04/09 03:47:43;;;;;;;2.72;1.83;;;7.40;52.60;;;;;;4983809;28;20036;-83
2021/04/09 03:50:09;;;;;;;1.52;1.42;;;7.30;52.40;;;;;;4999818;28;20090;-83
2021/04/09 03:52:39;;;;;;;1.50;1.40;;;7.30;52.40;;;;;;4999298;28;20037;-83
2021/04/09 03:55:13;;;;;;;2.83;1.55;;;7.30;52.50;;;;;;4983818;28;20095;-83
2021/04/09 03:57:39;;;;;;;2.00;1.60;;;7.30;52.50;;;;;;4995738;28;20083;-84
2021/04/09 04:00:08;;;;;;;1.90;1.63;;;7.30;52.50;;;;;;5028363;28;20511;-83
2021/04/09 04:02:35;;;;;;;1.60;1.50;;;7.20;52.30;;;;;;4996181;28;20456;-83
2021/04/09 04:05:03;;;;;;;1.50;1.40;;;7.20;52.40;;;;;;5012054;28;20481;-83
2021/04/09 04:07:29;;;;;;;2.60;1.70;;;7.20;52.40;;;;;;5032202;28;20029;-83
2021/04/09 04:09:55;;;;;;;2.83;1.88;;;7.20;52.50;;;;;;4999823;28;20124;-83
2021/04/09 04:12:21;;;;;;;2.03;1.83;;;7.20;52.50;;;;;;4999561;28;20160;-83
2021/04/09 04:14:47;;;;;;;2.00;1.80;;;7.20;52.60;;;;;;5032138;28;20388;-83
2021/04/09 04:17:13;;;;;;;2.50;1.70;;;7.20;52.60;;;;;;5015554;28;20033;-84
2021/04/09 04:19:39;;;;;;;2.70;1.65;;;7.20;52.60;;;;;;5015552;28;20072;-82
2021/04/09 04:22:05;;;;;;;2.28;1.60;;;7.20;52.70;;;;;;5015629;28;20033;-84
2021/04/09 04:24:31;;;;;;;1.80;1.70;;;7.20;52.70;;;;;;4982821;28;20061;-83
2021/04/09 04:26:57;;;;;;;2.13;1.58;;;7.20;52.70;;;;;;5015456;28;20477;-81
2021/04/09 04:29:23;;;;;;;3.78;1.50;;;7.20;52.70;;;;;;5031498;28;20115;-83
2021/04/09 04:31:49;;;;;;;2.92;1.58;;;7.20;52.80;;;;;;5037802;28;20026;-83
2021/04/09 04:34:15;;;;;;;1.73;1.40;;;7.20;52.80;;;;;;5014727;28;20033;-83
2021/04/09 04:36:41;;;;;;;1.88;1.60;;;7.20;52.80;;;;;;5014525;28;20477;-83
2021/04/09 04:39:07;;;;;;;1.65;1.55;;;7.20;52.80;;;;;;5013874;28;20031;-82
2021/04/09 04:41:33;;;;;;;2.03;1.63;;;7.20;52.80;;;;;;5015476;28;20026;-83
2021/04/09 04:43:59;;;;;;;1.88;1.60;;;7.20;52.80;;;;;;5011742;28;20037;-83
2021/04/09 04:46:25;;;;;;;1.55;1.45;;;7.30;52.90;;;;;;5014586;28;20397;-83
2021/04/09 04:48:52;;;;;;;2.80;2.05;;;7.30;52.90;;;;;;4980727;28;20030;-82
2021/04/09 04:51:18;;;;;;;2.67;1.52;;;7.30;52.90;;;;;;4976101;28;20038;-81
2021/04/09 04:53:45;;;;;;;1.73;1.63;;;7.20;52.70;;;;;;4975921;28;20084;-82
2021/04/09 04:56:10;;;;;;;1.50;1.40;;;7.30;52.80;;;;;;4989437;28;20066;-82
2021/04/09 04:58:36;;;;;;;1.83;1.38;;;7.30;52.90;;;;;;5001358;28;20056;-83
2021/04/09 05:01:03;;;;;;;1.92;1.73;;;7.30;52.90;;;;;;5011922;28;20094;-81
2021/04/09 05:03:29;;;;;;;3.30;1.63;;;7.30;52.90;;;;;;5008841;28;20025;-82
2021/04/09 05:05:55;;;;;;;1.92;1.60;;;7.20;52.80;;;;;;4994057;28;20090;-82
2021/04/09 05:08:21;;;;;;;3.22;2.10;;;7.20;52.80;;;;;;5010481;28;20030;-81
2021/04/09 05:10:47;;;;;;;2.53;1.58;;;7.20;52.90;;;;;;5011282;28;20522;-81
2021/04/09 05:13:13;;;;;;;2.22;1.48;;;7.30;53.10;;;;;;5011625;28;20059;-83
2021/04/09 05:15:39;;;;;;;1.80;1.60;;;7.20;52.80;;;;;;4995831;28;20028;-82
2021/04/09 05:18:05;;;;;;;3.25;1.88;;;7.20;52.80;;;;;;5012148;28;20276;-84
2021/04/09 05:20:32;;;;;;;1.60;1.50;;;7.20;52.90;;;;;;5010910;28;20488;-82
2021/04/09 05:22:58;;;;;;;2.55;1.88;;;7.10;52.70;;;;;;4993448;28;20034;-81
2021/04/09 05:25:34;;;;;;;3.67;1.75;;;7.10;52.80;;;;;;4975913;28;20541;-84
2021/04/09 05:28:05;;;;;;;3.35;1.65;;;7.20;53.20;;;;;;4973692;28;20099;-86
2021/04/09 05:30:31;;;;;;;3.17;1.73;;;7.20;53.40;;;;;;5006894;28;20081;-82
2021/04/09 05:32:58;;;;;;;3.03;1.50;;;7.20;53.40;;;;;;4968770;28;20042;-81
2021/04/09 05:35:25;;;;;;;1.90;1.80;;;7.20;53.60;;;;;;4986307;28;20382;-82
2021/04/09 05:37:52;;;;;;;3.10;1.80;;;7.20;53.70;;;;;;5006756;28;20045;-84
2021/04/09 05:40:18;;;;;;;2.13;1.85;;;7.20;53.80;;;;;;5008079;28;20076;-81
2021/04/09 05:42:45;;;;;;;2.38;1.90;;;7.20;53.90;;;;;;5008254;28;20358;-80
2021/04/09 05:45:12;;;;;;;2.83;1.73;;;7.30;54.20;;;;;;5017481;28;20034;-80
2021/04/09 05:47:38;;;;;;;2.80;1.90;;;7.30;54.30;;;;;;4972385;28;20030;-82
2021/04/09 05:50:05;;;;;;;2.67;1.85;;;7.30;54.40;;;;;;4990638;28;20048;-82
2021/04/09 05:52:31;;;;;;;3.63;1.88;;;7.30;54.60;;;;;;4990246;28;20034;-81
2021/04/09 05:54:57;;;;;;;4.78;2.20;;;7.40;54.90;;;;;;4992517;28;20541;-80
2021/04/09 05:57:23;;;;;;;2.80;2.10;;;7.40;55.00;;;;;;4990950;28;20381;-80
2021/04/09 05:59:49;;;;;;;2.47;2.28;;;7.40;55.00;;;;;;4989972;28;20366;-81
2021/04/09 06:02:15;;;;;;;2.25;1.80;;;7.50;55.40;;;;;;4986921;28;20085;-80
2021/04/09 06:04:41;;;;;;;2.65;1.98;;;7.50;55.50;;;;;;4985262;28;20372;-81
2021/04/09 06:07:07;;;;;;;4.93;2.05;;;7.50;55.50;;;;;;4996283;28;20021;-80
2021/04/09 06:09:33;;;;;;;2.63;2.00;;;7.50;55.60;;;;;;5009868;28;20101;-79
2021/04/09 06:12:00;;;;;;;3.47;1.85;;;7.60;55.90;;;;;;5009012;28;20093;-80
2021/04/09 06:14:26;;;;;;;2.38;1.98;;;7.60;56.00;;;;;;5007683;28;20064;-81
2021/04/09 06:16:52;;;;;;;1.98;1.77;;;7.70;56.30;;;;;;4990466;28;20024;-82
2021/04/09 06:19:18;;;;;;;3.42;2.20;;;7.70;56.30;;;;;;4991481;28;20056;-81
2021/04/09 06:21:44;;;;;;;4.53;2.20;;;7.80;56.50;;;;;;5012100;28;20458;-80
2021/04/09 06:24:10;;;;;;;2.63;2.33;;;7.80;56.60;;;;;;4999726;28;20092;-81
2021/04/09 06:26:37;;;;;;;3.70;2.67;;;7.80;56.70;;;;;;5013867;28;20037;-81
2021/04/09 06:29:03;;;;;;;2.33;2.13;;;7.90;56.90;;;;;;5031230;28;20022;-86
2021/04/09 06:31:29;;;;;;;3.13;2.25;;;7.90;57.00;;;;;;5012339;28;20037;-82
2021/04/09 06:33:55;;;;;;;2.67;2.47;;;8.00;57.20;;;;;;4994700;28;20067;-80
2021/04/09 06:36:22;;;;;;;4.03;2.45;;;8.10;57.40;;;;;;5028150;28;20058;-81
2021/04/09 06:38:48;;;;;;;3.75;2.65;;;8.10;57.40;;;;;;5011491;28;20663;-81
2021/04/09 06:41:14;;;;;;;3.17;2.58;;;8.20;57.70;;;;;;5012316;28;20037;-80
2021/04/09 06:43:41;;;;;;;2.88;2.67;;;8.20;57.70;;;;;;5012165;28;20384;-82
2021/04/09 06:46:08;;;;;;;2.70;2.42;;;8.30;57.90;;;;;;5013447;28;20029;-81
2021/04/09 06:48:34;;;;;;;2.53;2.15;;;8.30;58.00;;;;;;4996355;28;20025;-81
2021/04/09 06:51:01;;;;;;;5.22;2.90;;;8.40;58.20;;;;;;5012860;28;20113;-81
2021/04/09 06:53:28;;;;;;;4.85;2.67;;;8.40;58.20;;;;;;5011439;28;20425;-81
2021/04/09 06:55:54;;;;;;;3.85;2.65;;;8.50;58.40;;;;;;5009589;28;20038;-81
2021/04/09 06:58:23;;;;;;;3.28;2.40;;;8.60;58.60;;;;;;5014452;28;20127;-83
2021/04/09 07:00:51;;;;;;;3.70;2.40;;;8.60;58.70;;;;;;4997596;28;20040;-81
2021/04/09 07:03:18;;;;;;;4.55;2.55;;;8.60;58.70;;;;;;5005643;28;20025;-81
2021/04/09 07:05:44;;;;;;;3.42;2.10;;;8.70;58.90;;;;;;5011776;28;20614;-81
2021/04/09 07:08:10;;;;;;;3.53;2.50;;;8.70;59.00;;;;;;5013311;28;20033;-81
2021/04/09 07:10:36;;;;;;;4.03;2.58;;;8.80;59.20;;;;;;5013282;28;20404;-81
2021/04/09 07:13:10;;;;;;;2.92;1.95;;;9.00;59.60;;;;;;5020854;28;20046;-82
2021/04/09 07:15:54;;;;;;;2.90;2.60;;;9.10;60.00;;;;;;5033688;28;20041;-80
2021/04/09 07:18:40;;;;;;;;;;;9.20;60.30;;;;;;5013950;28;20028;-82
2021/04/09 07:21:38;;;;;;;3.30;2.25;;;9.40;60.10;;;;;;5013678;28;20355;-81
2021/04/09 07:24:13;;;;;;;2.47;1.95;;;9.60;60.20;;;;;;4997214;28;20096;-82
2021/04/09 07:26:48;;;;;;;3.47;2.10;;;9.90;60.50;;;;;;4998584;28;20071;-83
2021/04/09 07:29:30;;;;;;;3.22;2.35;;;10.00;60.50;;;;;;4997914;28;20495;-83
2021/04/09 07:31:57;;;;;;;3.75;2.33;;;10.20;60.80;;;;;;4995795;28;20029;-80
2021/04/09 07:34:23;;;;;;;4.60;2.38;;;10.40;60.80;;;;;;5011566;28;20033;-80
2021/04/09 07:36:56;;;;;;;2.70;1.95;;;10.60;61.00;;;;;;5006920;28;20071;-79
2021/04/09 07:40:14;;;;;;;4.38;2.60;;;10.70;61.20;;;;;;4999866;28;20033;-79
2021/04/09 07:42:40;;;;;;;3.08;2.28;;;10.90;61.50;;;;;;4939116;28;20556;-81
2021/04/09 07:45:11;;;;;;;3.22;2.25;;;11.10;61.40;;;;;;5028821;28;20076;-80
2021/04/09 07:47:39;;;;;;;4.35;2.47;;;11.20;61.60;;;;;;5010894;28;20060;-84
2021/04/09 07:50:14;;;;;;;2.75;2.22;;;11.30;61.50;;;;;;5011932;28;20037;-81
2021/04/09 07:52:45;;;;;;;2.97;1.98;;;11.50;61.70;;;;;;5013158;28;20075;-83
2021/04/09 07:55:58;;;;;;;2.65;2.28;;;11.60;61.70;;;;;;5012813;28;20557;-85
2021/04/09 07:58:58;;;;;;;3.15;2.05;;;11.70;61.80;;;;;;5018907;28;20033;-85
2021/04/09 08:10:51;;;;;;;3.90;2.13;;;12.30;61.70;;;;;;4952921;28;20061;-85
2021/04/09 08:14:30;;;;;;;2.70;2.00;;;12.50;61.60;;;;;;5025605;28;20262;-88
2021/04/09 08:18:37;;;;;;;;;;;12.60;61.40;;;;;;4982623;28;20951;-88
2021/04/09 08:50:11;;;;;;;4.82;2.35;;;13.10;60.30;;;;;;5023305;28;20056;-87
2021/04/09 08:58:30;;;;;;;2.35;1.85;;;13.10;60.20;;;;;;4974069;28;20045;-87
2021/04/09 09:01:36;;;;;;;3.15;1.80;;;13.20;60.30;;;;;;4948243;28;20065;-87
2021/04/09 09:04:21;;;;;;;2.10;1.90;;;13.30;60.20;;;;;;4938528;28;20065;-83
2021/04/09 09:06:49;;;;;;;3.35;1.90;;;13.30;60.00;;;;;;4952898;28;20110;-82
2021/04/09 09:09:32;;;;;;;3.35;2.10;;;13.40;60.00;;;;;;4951292;28;20073;-82
2021/04/09 09:12:22;;;;;;;6.28;2.25;;;13.50;60.00;;;;;;4950937;28;20047;-82
2021/04/09 09:16:12;;;;;;;4.45;2.03;;;13.60;59.90;;;;;;4941694;29;20523;-88
2021/04/09 09:18:43;;;;;;;3.78;2.13;;;13.80;60.00;;;;;;4912815;29;20067;-85
2021/04/09 09:21:44;;;;;;;2.85;1.90;;;14.00;60.10;;;;;;4917439;29;20418;-84
2021/04/09 09:24:19;;;;;;;2.63;1.92;;;14.20;60.10;;;;;;4955598;28;20649;-86
2021/04/09 09:26:47;;;;;;;3.33;1.92;;;14.40;60.00;;;;;;4987752;28;20133;-88
2021/04/09 09:29:22;;;;;;;2.28;1.85;;;14.60;60.10;;;;;;4956197;28;20106;-84
2021/04/09 09:32:06;;;;;;;2.60;1.83;;;14.80;60.10;;;;;;4962952;28;20047;-84
2021/04/09 09:34:40;;;;;;;4.55;1.67;;;14.90;59.90;;;;;;4951871;28;20059;-86
2021/04/09 09:37:59;;;;;;;;;;;15.10;59.90;;;;;;4958136;28;20039;-84
2021/04/09 09:41:03;;;;;;;2.83;1.42;;;15.20;59.90;;;;;;4988020;28;20000;-83
2021/04/09 09:44:05;;;;;;;2.42;1.70;;;15.30;59.70;;;;;;4958322;28;20104;-83
2021/04/09 09:47:16;;;;;;;3.38;1.63;;;15.30;59.50;;;;;;4985748;28;20050;-86
2021/04/09 09:50:03;;;;;;;3.25;1.80;;;15.40;59.50;;;;;;5003078;28;20418;-83
2021/04/09 09:53:05;;;;;;;2.75;1.48;;;15.50;59.60;;;;;;5010427;28;20057;-83
2021/04/09 09:55:39;;;;;;;3.53;1.95;;;15.40;59.30;;;;;;5007874;28;20043;-84
2021/04/09 09:58:11;;;;;;;;;;;15.60;59.50;;;;;;5021994;28;20125;-83
2021/04/09 10:00:38;;;;;;;4.05;1.95;;;15.60;59.50;;;;;;4990475;28;19920;-86
2021/04/09 10:03:12;;;;;;;4.38;1.73;;;15.80;60.20;;;;;;4982572;28;20025;-82
2021/04/09 10:05:39;;;;;;;2.35;1.60;;;15.80;59.40;;;;;;5009295;28;20160;-84
2021/04/09 10:08:08;;;;;;;2.17;1.40;;;15.90;59.40;;;;;;5029144;28;20059;-85
2021/04/09 10:10:44;;;;;;;1.90;1.73;;;15.90;59.20;;;;;;4996333;28;20041;-83
2021/04/09 10:13:36;;;;;;;2.17;1.90;;;15.90;59.00;;;;;;5011498;28;20051;-85
2021/04/09 10:16:34;;;;;;;2.53;1.52;;;15.90;59.00;;;;;;5010893;28;20210;-85
2021/04/09 10:19:10;;;;;;;1.65;1.50;;;16.00;59.10;;;;;;4979285;28;20041;-84
2021/04/09 10:21:45;;;;;;;7.93;1.98;;;16.00;59.00;;;;;;4994031;28;20092;-83
2021/04/09 10:24:27;;;;;;;2.22;1.40;;;16.00;58.80;;;;;;4995371;28;20101;-83
2021/04/09 10:27:02;;;;;;;1.75;1.40;;;16.10;58.80;;;;;;4997402;28;20076;-84
2021/04/09 10:30:08;;;;;;;1.63;1.52;;;16.20;58.90;;;;;;4979537;28;20069;-88
2021/04/09 10:33:23;;;;;;;2.15;1.58;;;16.20;58.70;;;;;;5013858;28;20029;-86
2021/04/09 10:35:53;;;;;;;4.45;1.73;;;16.30;58.80;;;;;;5029295;28;20113;-83
2021/04/09 10:38:20;;;;;;;3.35;1.88;;;16.40;58.90;;;;;;5012094;28;20112;-86
2021/04/09 10:40:55;;;;;;;2.17;1.42;;;16.40;58.60;;;;;;5014809;28;20034;-84
2021/04/09 10:43:32;;;;;;;3.15;1.30;;;16.50;58.60;;;;;;4995123;28;20026;-84
2021/04/09 10:46:14;;;;;;;1.60;1.20;;;16.50;58.40;;;;;;5014403;28;20037;-87
2021/04/09 10:48:41;;;;;;;1.90;1.50;;;16.60;58.40;;;;;;5013441;28;20068;-84
2021/04/09 10:56:21;;;;;;;2.08;1.75;;;16.80;58.50;;;;;;5029665;28;20520;-86
2021/04/09 11:04:44;;;;;;;2.40;1.58;;;17.30;58.50;;;;;;5031684;28;20032;-84
2021/04/09 11:13:30;;;;;;;2.45;1.20;;;17.70;58.60;;;;;;5034668;28;20052;-93
2021/04/09 11:18:01;;;;;;;2.25;1.45;;;17.90;58.60;;;;;;5031710;28;20084;-87
2021/04/09 11:20:36;;;;;;;3.58;1.45;;;18.10;58.60;;;;;;5013694;28;20026;-83
2021/04/09 11:23:50;;;;;;;3.55;1.40;;;18.20;58.50;;;;;;5014005;28;20144;-87
2021/04/09 11:33:01;;;;;;;2.35;1.30;;;18.30;58.30;;;;;;4985541;28;20120;-90
2021/04/09 11:36:39;;;;;;;2.28;1.38;;;18.40;58.40;;;;;;4933181;29;20040;-85
2021/04/09 11:39:41;;;;;;;1.95;1.58;;;18.50;58.40;;;;;;4944431;28;20049;-84
2021/04/09 11:42:37;;;;;;;2.83;1.13;;;18.60;58.40;;;;;;4938841;28;20433;-85
2021/04/09 11:45:05;;;;;;;3.47;1.40;;;18.80;58.50;;;;;;4933845;29;20178;-82
2021/04/09 11:48:00;;;;;;;1.85;1.30;;;18.80;58.30;;;;;;4934938;29;20035;-85
2021/04/09 11:50:58;;;;;;;1.77;1.17;;;19.00;58.30;;;;;;4948467;28;20074;-85
2021/04/09 11:59:52;;;;;;;2.22;1.30;;;19.20;58.10;;;;;;4986463;28;20068;-84
2021/04/09 12:04:04;;;;;;;1.70;1.02;;;19.30;58.00;;;;;;4979086;28;20448;-85
2021/04/09 12:07:26;;;;;;;1.88;1.25;;;19.50;58.30;;;;;;4994082;28;20150;-86
2021/04/09 12:11:02;;;;;;;1.17;1.08;;;19.50;58.00;;;;;;4989243;28;20045;-84
2021/04/09 12:14:17;;;;;;;2.63;1.00;;;19.70;58.30;;;;;;4988223;28;20339;-90
2021/04/09 12:17:09;;;;;;;1.20;1.10;;;19.80;58.20;;;;;;4990550;28;20174;-86
2021/04/09 12:19:43;;;;;;;3.70;1.30;;;20.00;58.30;;;;;;4987110;28;20545;-84
2021/04/09 12:22:13;;;;;;;2.08;1.10;;;20.10;58.30;;;;;;5007673;28;20507;-86
2021/04/09 12:26:07;;;;;;;2.80;1.38;;;20.20;58.10;;;;;;4989409;28;20108;-88
2021/04/09 12:29:42;;;;;;;2.17;1.30;;;20.30;57.90;;;;;;5004778;28;20096;-84
2021/04/09 12:32:58;;;;;;;2.05;1.38;;;20.40;57.90;;;;;;4991895;28;20579;-85
2021/04/09 12:36:30;;;;;;;1.47;1.00;;;20.50;57.70;;;;;;5008131;28;20044;-85
2021/04/09 12:38:56;;;;;;;1.48;0.98;;;20.60;57.80;;;;;;4995367;28;20093;-85
2021/04/09 12:42:19;;;;;;;2.10;1.50;;;20.60;57.60;;;;;;5006731;28;20073;-86
2021/04/09 12:44:47;;;;;;;2.40;1.25;;;20.60;57.30;;;;;;4988989;28;20069;-86
2021/04/09 12:47:13;;;;;;;1.63;1.17;;;20.60;57.40;;;;;;4988059;28;20035;-84
2021/04/09 12:49:39;;;;;;;2.83;1.30;;;20.70;57.50;;;;;;4986459;28;20034;-88
2021/04/09 12:52:07;;;;;;;1.30;1.10;;;20.80;57.60;;;;;;4976372;28;20026;-90
2021/04/09 12:54:33;;;;;;;1.20;1.00;;;20.90;57.50;;;;;;4993367;28;20044;-87
2021/04/09 12:56:59;;;;;;;1.30;1.02;;;21.10;57.70;;;;;;5017295;28;20045;-87
2021/04/09 12:59:26;;;;;;;1.00;0.90;;;21.20;57.60;;;;;;5013814;28;20596;-89
2021/04/09 13:11:04;;;;;;;1.65;1.02;;;21.70;57.70;;;;;;4932539;29;20171;-89
2021/04/09 13:14:17;;;;;;;1.88;1.10;;;21.80;57.60;;;;;;4914199;29;20036;-86
2021/04/09 13:22:31;;;;;;;0.73;0.73;;;22.20;57.90;;;;;;4913956;29;20039;-86
2021/04/09 13:26:12;;;;;;;1.33;0.90;;;22.30;57.80;;;;;;4892060;29;20048;-87
2021/04/09 13:34:02;;;;;;;1.17;0.90;;;22.50;57.80;;;;;;4907897;29;20036;-90
2021/04/09 13:38:19;;;;;;;1.38;1.00;;;22.60;57.70;;;;;;4837177;29;20113;-85
2021/04/09 13:51:42;;;;;;;0.70;0.70;;;22.80;57.70;;;;;;4840731;29;20061;-88
2021/04/09 14:02:19;;;;;;;1.10;1.00;;;22.70;57.10;;;;;;4765145;30;20594;-84
2021/04/09 14:04:45;;;;;;;1.00;0.80;;;22.60;57.10;;;;;;4764626;30;20044;-85
2021/04/09 14:07:11;;;;;;;1.55;1.00;;;22.50;56.80;;;;;;4783783;29;20099;-87
2021/04/09 14:46:43;;;;;;;1.25;1.08;;;23.20;57.00;;;;;;4973227;28;20031;-88
2021/04/09 14:49:09;;;;;;;1.00;0.90;;;23.30;57.00;;;;;;4939479;28;20093;-88
2021/04/09 14:51:35;;;;;;;0.77;0.70;;;23.40;57.00;;;;;;4972445;28;20473;-89
2021/04/09 14:54:02;;;;;;;1.20;1.10;;;23.50;56.90;;;;;;5012854;28;20447;-88
2021/04/09 14:56:29;;;;;;;1.25;0.75;;;23.50;56.70;;;;;;5000723;28;20033;-86
2021/04/09 14:58:55;;;;;;;1.48;1.00;;;23.50;56.50;;;;;;4999454;28;20063;-85
2021/04/09 15:01:22;;;;;;;2.63;0.80;;;23.60;56.60;;;;;;5014878;28;20045;-84
2021/04/09 15:03:49;;;;;;;1.55;0.80;;;23.50;56.30;;;;;;4998589;28;20380;-83
2021/04/09 15:06:15;;;;;;;1.13;0.90;;;23.50;56.20;;;;;;5015171;28;20037;-83
2021/04/09 15:08:42;;;;;;;0.80;0.80;;;23.50;56.10;;;;;;5032291;28;20059;-83
2021/04/09 15:11:09;;;;;;;1.25;0.85;;;23.40;55.90;;;;;;5030693;28;20090;-85
2021/04/09 15:13:36;;;;;;;1.33;0.93;;;23.30;55.70;;;;;;5012402;28;20029;-84
2021/04/09 15:16:02;;;;;;;2.45;0.73;;;23.30;55.80;;;;;;5011780;28;20801;-84
2021/04/09 15:18:28;;;;;;;1.08;0.73;;;23.20;55.70;;;;;;5013538;28;20037;-82
2021/04/09 15:20:55;;;;;;;2.00;0.90;;;23.10;55.60;;;;;;5008001;28;20055;-84
2021/04/09 15:23:21;;;;;;;1.23;0.82;;;23.10;55.50;;;;;;5030780;28;20036;-86
2021/04/09 15:25:48;;;;;;;1.67;1.02;;;23.00;55.30;;;;;;5015797;28;20029;-86
2021/04/09 15:28:14;;;;;;;1.73;1.00;;;22.90;55.10;;;;;;5031407;28;20112;-86
2021/04/09 15:30:40;;;;;;;1.88;1.10;;;22.80;55.00;;;;;;5032014;28;20206;-83
2021/04/09 15:33:06;;;;;;;0.82;0.68;;;22.70;54.80;;;;;;5032618;28;20034;-86
2021/04/09 15:35:32;;;;;;;0.95;0.90;;;22.60;54.70;;;;;;5032893;28;20060;-84
2021/04/09 15:37:58;;;;;;;1.27;0.90;;;22.60;54.90;;;;;;4997176;28;20440;-86
2021/04/09 15:40:24;;;;;;;0.80;0.80;;;22.50;54.70;;;;;;4999210;28;20369;-86
2021/04/09 15:42:50;;;;;;;1.85;1.08;;;22.50;54.80;;;;;;5015159;28;20137;-86
2021/04/09 15:45:17;;;;;;;0.80;0.80;;;22.50;54.70;;;;;;5017600;28;20516;-86
2021/04/09 15:47:43;;;;;;;0.95;0.85;;;22.50;54.70;;;;;;5016402;28;20034;-86
2021/04/09 15:50:12;;;;;;;0.75;0.73;;;22.50;54.70;;;;;;4997639;28;20033;-86
2021/04/09 15:52:38;;;;;;;1.73;0.77;;;22.50;54.70;;;;;;5013891;28;20028;-86
2021/04/09 15:55:05;;;;;;;0.98;0.80;;;22.40;54.50;;;;;;4997141;28;20053;-87
2021/04/09 15:57:31;;;;;;;1.38;0.80;;;22.50;54.70;;;;;;5013094;28;20560;-85
2021/04/09 15:59:57;;;;;;;0.88;0.70;;;22.50;54.70;;;;;;4993247;28;20061;-85
2021/04/09 16:02:23;;;;;;;0.98;0.80;;;22.40;54.50;;;;;;5012334;28;20030;-83
2021/04/09 16:04:49;;;;;;;1.00;0.70;;;22.40;54.50;;;;;;4991948;28;20087;-81
2021/04/09 16:07:15;;;;;;;1.40;0.95;;;22.40;54.60;;;;;;5008735;28;20037;-84